createdAt,value
2023-04-02T00:00:23.772Z,10.83
2023-04-02T00:04:08.944Z,10.82
2023-04-02T00:06:46.382Z,10.85
2023-04-02T00:09:40.277Z,10.83
2023-04-02T00:12:32.250Z,10.86
2023-04-02T00:15:24.261Z,10.91
2023-04-02T00:18:19.138Z,10.92
2023-04-02T00:21:19.887Z,10.92
2023-04-02T00:24:17.312Z,10.88
2023-04-02T00:27:15.028Z,10.85
2023-04-02T00:30:08.771Z,10.83
2023-04-02T00:32:43.689Z,10.80
2023-04-02T00:35:40.036Z,10.78
2023-04-02T00:38:34.681Z,10.73
2023-04-02T00:41:29.739Z,10.67
2023-04-02T00:44:23.702Z,10.63
2023-04-02T00:47:20.157Z,10.70
2023-04-02T00:50:29.794Z,10.70
2023-04-02T00:53:28.770Z,10.74
2023-04-02T00:56:04.546Z,10.74
2023-04-02T00:58:51.977Z,10.73
2023-04-02T01:01:44.308Z,10.75
2023-04-02T01:04:37.129Z,10.73
2023-04-02T01:07:44.796Z,10.71
2023-04-02T01:10:56.117Z,10.68
2023-04-02T01:13:58.696Z,10.63
2023-04-02T01:17:00.504Z,10.59
2023-04-02T01:20:18.596Z,10.55
2023-04-02T01:22:59.817Z,10.51
2023-04-02T01:25:58.928Z,10.52
2023-04-02T01:29:11.794Z,10.57
2023-04-02T01:32:07.734Z,10.56
2023-04-02T01:35:01.264Z,10.59
2023-04-02T01:37:59.466Z,10.61
2023-04-02T01:41:00.603Z,10.62
2023-04-02T01:43:59.371Z,10.62
2023-04-02T01:46:52.014Z,10.60
2023-04-02T01:49:44.918Z,10.56
2023-04-02T01:52:44.311Z,10.53
2023-04-02T01:55:43.257Z,10.52
2023-04-02T01:58:35.741Z,10.50
2023-04-02T02:01:33.044Z,10.45
2023-04-02T02:04:25.546Z,10.37
2023-04-02T02:07:20.538Z,10.38
2023-04-02T02:10:18.274Z,10.44
2023-04-02T02:13:16.769Z,10.44
2023-04-02T02:16:14.800Z,10.45
2023-04-02T02:19:07.704Z,10.47
2023-04-02T02:22:08.897Z,10.46
2023-04-02T02:25:05.213Z,10.46
2023-04-02T02:28:03.716Z,10.42
2023-04-02T02:30:58.526Z,10.38
2023-04-02T02:33:54.143Z,10.35
2023-04-02T02:36:54.556Z,10.32
2023-04-02T02:39:51.490Z,10.30
2023-04-02T02:42:49.052Z,10.29
2023-04-02T02:45:44.026Z,10.25
2023-04-02T02:48:40.659Z,10.24
2023-04-02T02:51:56.244Z,10.29
2023-04-02T02:54:52.474Z,10.30
2023-04-02T02:57:49.137Z,10.31
2023-04-02T03:00:41.767Z,10.29
2023-04-02T03:03:36.117Z,10.27
2023-04-02T03:06:28.213Z,10.27
2023-04-02T03:09:30.244Z,10.27
2023-04-02T03:12:37.633Z,10.25
2023-04-02T03:15:36.326Z,10.23
2023-04-02T03:18:39.422Z,10.18
2023-04-02T03:21:36.259Z,10.16
2023-04-02T03:24:53.506Z,10.13
2023-04-02T03:27:49.356Z,10.08
2023-04-02T03:30:45.797Z,10.06
2023-04-02T03:33:41.902Z,10.06
2023-04-02T03:36:43.704Z,10.12
2023-04-02T03:39:41.255Z,10.12
2023-04-02T03:42:42.922Z,10.15
2023-04-02T03:45:41.167Z,10.17
2023-04-02T03:48:25.845Z,10.21
2023-04-02T03:51:23.664Z,10.25
2023-04-02T03:54:18.331Z,10.23
2023-04-02T03:57:19.556Z,10.22
2023-04-02T04:00:20.752Z,10.20
2023-04-02T04:03:16.598Z,10.19
2023-04-02T04:06:16.496Z,10.17
2023-04-02T04:09:17.333Z,10.14
2023-04-02T04:12:20.643Z,10.12
2023-04-02T04:15:21.888Z,10.08
2023-04-02T04:18:24.807Z,10.08
2023-04-02T04:21:29.890Z,10.05
2023-04-02T04:24:24.747Z,10.05
2023-04-02T04:27:25.423Z,10.11
2023-04-02T04:30:22.995Z,10.13
2023-04-02T04:33:22.918Z,10.17
2023-04-02T04:36:28.563Z,10.22
2023-04-02T04:39:29.679Z,10.24
2023-04-02T04:42:25.616Z,10.23
2023-04-02T04:45:29.958Z,10.20
2023-04-02T04:48:26.661Z,10.18
2023-04-02T04:51:25.032Z,10.12
2023-04-02T04:54:18.566Z,10.02
2023-04-02T04:57:26.736Z,9.92
2023-04-02T05:00:21.940Z,9.87
2023-04-02T05:03:22.440Z,9.80
2023-04-02T05:06:23.445Z,9.74
2023-04-02T05:09:23.881Z,9.74
2023-04-02T05:12:27.670Z,9.77
2023-04-02T05:15:27.574Z,9.74
2023-04-02T05:18:29.503Z,9.70
2023-04-02T05:21:27.132Z,9.71
2023-04-02T05:24:37.523Z,9.68
2023-04-02T05:27:29.631Z,9.62
2023-04-02T05:30:39.832Z,9.56
2023-04-02T05:33:34.218Z,9.50
2023-04-02T05:36:26.399Z,9.42
2023-04-02T05:39:24.682Z,9.32
2023-04-02T05:42:22.826Z,9.23
2023-04-02T05:45:25.509Z,9.17
2023-04-02T05:48:21.851Z,9.13
2023-04-02T05:51:19.940Z,9.11
2023-04-02T05:53:59.630Z,9.17
2023-04-02T05:56:55.153Z,9.15
2023-04-02T05:59:51.416Z,9.11
2023-04-02T06:02:52.996Z,9.06
2023-04-02T06:05:47.166Z,8.97
2023-04-02T06:08:45.146Z,8.92
2023-04-02T06:11:42.330Z,8.90
2023-04-02T06:14:34.498Z,8.84
2023-04-02T06:17:27.403Z,8.78
2023-04-02T06:20:21.999Z,8.73
2023-04-02T06:23:20.500Z,8.66
2023-04-02T06:26:18.004Z,8.55
2023-04-02T06:29:15.828Z,8.48
2023-04-02T06:32:09.908Z,8.44
2023-04-02T06:35:01.946Z,8.40
2023-04-02T06:37:58.030Z,8.40
2023-04-02T06:40:54.053Z,8.40
2023-04-02T06:43:50.743Z,8.36
2023-04-02T06:46:49.514Z,8.34
2023-04-02T06:49:47.068Z,8.28
2023-04-02T06:52:45.958Z,8.23
2023-04-02T06:55:49.086Z,8.16
2023-04-02T06:58:41.161Z,8.04
2023-04-02T07:01:37.132Z,7.92
2023-04-02T07:04:29.389Z,7.86
2023-04-02T07:07:21.464Z,7.75
2023-04-02T07:10:14.095Z,7.67
2023-04-02T07:13:06.403Z,7.71
2023-04-02T07:15:58.478Z,7.67
2023-04-02T07:18:50.967Z,7.66
2023-04-02T07:21:42.987Z,7.70
2023-04-02T07:24:35.040Z,7.72
2023-04-02T07:27:27.995Z,7.74
2023-04-02T07:30:20.258Z,7.74
2023-04-02T07:33:16.399Z,7.73
2023-04-02T07:36:09.150Z,7.67
2023-04-02T07:39:02.015Z,7.63
2023-04-02T07:41:59.181Z,7.58
2023-04-02T07:44:52.030Z,7.53
2023-04-02T07:47:44.867Z,7.48
2023-04-02T07:50:37.615Z,7.44
2023-04-02T07:53:30.543Z,7.43
2023-04-02T07:56:23.402Z,7.50
2023-04-02T07:59:15.411Z,7.65
2023-04-02T08:02:07.658Z,7.71
2023-04-02T08:04:59.788Z,7.81
2023-04-02T08:07:56.963Z,7.88
2023-04-02T08:10:49.343Z,7.84
2023-04-02T08:13:41.584Z,7.83
2023-04-02T08:16:48.456Z,7.82
2023-04-02T08:19:53.815Z,7.72
2023-04-02T08:22:47.159Z,7.66
2023-04-02T08:25:39.147Z,7.61
2023-04-02T08:28:22.936Z,7.58
2023-04-02T08:31:14.965Z,7.49
2023-04-02T08:34:07.236Z,7.42
2023-04-02T08:37:00.658Z,7.44
2023-04-02T08:39:52.632Z,7.40
2023-04-02T08:42:53.912Z,7.39
2023-04-02T08:45:59.008Z,7.45
2023-04-02T08:48:56.840Z,7.55
2023-04-02T08:51:49.860Z,7.55
2023-04-02T08:54:43.641Z,7.64
2023-04-02T08:57:41.236Z,7.74
2023-04-02T09:00:38.109Z,7.80
2023-04-02T09:03:36.586Z,7.81
2023-04-02T09:06:29.571Z,7.78
2023-04-02T09:09:23.345Z,7.85
2023-04-02T09:12:21.385Z,7.94
2023-04-02T09:15:24.696Z,8.00
2023-04-02T09:18:18.762Z,8.00
2023-04-02T09:21:34.444Z,8.00
2023-04-02T09:24:26.579Z,7.99
2023-04-02T09:27:22.833Z,7.97
2023-04-02T09:30:09.128Z,7.95
2023-04-02T09:33:07.254Z,7.89
2023-04-02T09:35:59.702Z,7.87
2023-04-02T09:39:06.502Z,7.87
2023-04-02T09:41:39.176Z,7.88
2023-04-02T09:44:32.327Z,7.82
2023-04-02T09:47:28.939Z,7.85
2023-04-02T09:50:27.950Z,7.84
2023-04-02T09:53:35.703Z,7.85
2023-04-02T09:56:17.508Z,7.87
2023-04-02T09:59:06.147Z,7.89
2023-04-02T10:01:49.168Z,7.88
2023-04-02T10:04:44.836Z,7.81
2023-04-02T10:07:34.854Z,7.75
2023-04-02T10:10:37.053Z,7.69
2023-04-02T10:13:32.938Z,7.65
2023-04-02T10:16:19.199Z,7.64
2023-04-02T10:19:01.917Z,7.60
2023-04-02T10:21:45.223Z,7.54
2023-04-02T10:24:20.646Z,7.45
2023-04-02T10:27:22.846Z,7.40
2023-04-02T10:30:15.897Z,7.38
2023-04-02T10:32:56.528Z,7.43
2023-04-02T10:35:55.473Z,7.46
2023-04-02T10:38:49.680Z,7.47
2023-04-02T10:41:36.556Z,7.53
2023-04-02T10:44:44.538Z,7.57
2023-04-02T10:47:44.707Z,7.63
2023-04-02T10:50:45.744Z,7.70
2023-04-02T10:53:45.000Z,7.75
2023-04-02T10:56:50.179Z,7.79
2023-04-02T10:59:49.070Z,7.71
2023-04-02T11:02:50.074Z,7.63
2023-04-02T11:05:47.021Z,7.54
2023-04-02T11:08:43.245Z,7.50
2023-04-02T11:11:41.110Z,7.53
2023-04-02T11:14:34.286Z,7.55
2023-04-02T11:17:26.714Z,7.54
2023-04-02T11:21:04.703Z,7.47
2023-04-02T11:24:02.841Z,7.46
2023-04-02T11:26:55.312Z,7.45
2023-04-02T11:29:49.832Z,7.40
2023-04-02T11:32:43.640Z,7.36
2023-04-02T11:35:42.142Z,7.41
2023-04-02T11:38:55.001Z,7.43
2023-04-02T11:42:06.695Z,7.48
2023-04-02T11:44:49.001Z,7.57
2023-04-02T11:47:41.040Z,7.60
2023-04-02T11:50:35.546Z,7.57
2023-04-02T11:53:32.447Z,7.53
2023-04-02T11:56:48.268Z,7.45
2023-04-02T11:59:51.530Z,7.40
2023-04-02T12:02:59.456Z,7.55
2023-04-02T12:06:00.457Z,7.72
2023-04-02T12:09:05.973Z,7.68
2023-04-02T12:11:58.030Z,7.59
2023-04-02T12:14:52.877Z,7.54
2023-04-02T12:17:45.037Z,7.52
2023-04-02T12:20:37.810Z,7.44
2023-04-02T12:23:32.898Z,7.38
2023-04-02T12:26:37.455Z,7.34
2023-04-02T12:29:30.835Z,7.32
2023-04-02T12:32:30.708Z,7.38
2023-04-02T12:35:35.941Z,7.38
2023-04-02T12:38:29.838Z,7.47
2023-04-02T12:41:26.972Z,7.54
2023-04-02T12:44:21.681Z,7.58
2023-04-02T12:47:16.011Z,7.63
2023-04-02T12:50:15.462Z,7.64
2023-04-02T12:53:20.225Z,7.62
2023-04-02T12:55:56.807Z,7.56
2023-04-02T12:58:39.699Z,7.48
2023-04-02T13:01:19.457Z,7.40
2023-04-02T13:04:09.109Z,7.35
2023-04-02T13:07:02.092Z,7.31
2023-04-02T13:09:46.769Z,7.24
2023-04-02T13:12:41.122Z,7.17
2023-04-02T13:15:27.183Z,7.12
2023-04-02T13:18:24.840Z,7.03
2023-04-02T13:21:01.004Z,7.00
2023-04-02T13:23:42.355Z,7.02
2023-04-02T13:26:34.723Z,7.07
2023-04-02T13:29:18.075Z,7.05
2023-04-02T13:32:14.420Z,7.05
2023-04-02T13:35:08.048Z,7.11
2023-04-02T13:37:40.103Z,7.16
2023-04-02T13:40:29.837Z,7.20
2023-04-02T13:43:22.721Z,7.20
2023-04-02T13:46:00.971Z,7.16
2023-04-02T13:48:33.030Z,7.11
2023-04-02T13:51:31.715Z,7.05
2023-04-02T13:54:03.957Z,7.00
2023-04-02T13:56:57.440Z,7.01
2023-04-02T13:59:49.463Z,7.04
2023-04-02T14:02:46.284Z,7.01
2023-04-02T14:05:49.054Z,6.97
2023-04-02T14:08:53.427Z,6.92
2023-04-02T14:11:46.923Z,6.86
2023-04-02T14:14:55.831Z,6.80
2023-04-02T14:17:47.412Z,6.76
2023-04-02T14:20:39.228Z,6.69
2023-04-02T14:23:52.653Z,6.65
2023-04-02T14:27:01.995Z,6.71
2023-04-02T14:30:03.106Z,6.74
2023-04-02T14:32:42.824Z,6.77
2023-04-02T14:35:38.288Z,6.80
2023-04-02T14:38:30.400Z,6.79
2023-04-02T14:41:28.859Z,6.75
2023-04-02T14:44:12.321Z,6.71
2023-04-02T14:47:17.498Z,6.71
2023-04-02T14:49:57.529Z,6.76
2023-04-02T14:52:56.996Z,6.80
2023-04-02T14:55:48.345Z,6.85
2023-04-02T14:58:24.347Z,6.86
2023-04-02T15:01:05.715Z,6.79
2023-04-02T15:03:55.516Z,6.75
2023-04-02T15:06:38.061Z,6.71
2023-04-02T15:09:33.245Z,6.65
2023-04-02T15:12:29.879Z,6.60
2023-04-02T15:15:15.296Z,6.53
2023-04-02T15:18:00.580Z,6.48
2023-04-02T15:21:00.771Z,6.41
2023-04-02T15:23:50.974Z,6.37
2023-04-02T15:26:50.599Z,6.45
2023-04-02T15:29:35.689Z,6.49
2023-04-02T15:32:37.157Z,6.52
2023-04-02T15:35:37.721Z,6.50
2023-04-02T15:38:15.924Z,6.50
2023-04-02T15:41:15.426Z,6.54
2023-04-02T15:44:00.238Z,6.58
2023-04-02T15:46:55.539Z,6.58
2023-04-02T15:49:56.304Z,6.55
2023-04-02T15:52:55.316Z,6.53
2023-04-02T15:55:51.040Z,6.53
2023-04-02T15:58:54.745Z,6.48
2023-04-02T16:01:55.228Z,6.43
2023-04-02T16:04:44.154Z,6.41
2023-04-02T16:07:54.697Z,6.36
2023-04-02T16:10:42.522Z,6.31
2023-04-02T16:13:37.176Z,6.24
2023-04-02T16:16:16.208Z,6.19
2023-04-02T16:18:57.610Z,6.15
2023-04-02T16:21:44.384Z,6.12
2023-04-02T16:24:36.634Z,6.06
2023-04-02T16:27:35.649Z,6.06
2023-04-02T16:30:35.126Z,6.08
2023-04-02T16:33:33.832Z,6.08
2023-04-02T16:36:17.620Z,6.10
2023-04-02T16:39:23.740Z,6.12
2023-04-02T16:42:11.141Z,6.11
2023-04-02T16:45:01.418Z,6.13
2023-04-02T16:48:05.558Z,6.16
2023-04-02T16:51:10.811Z,6.13
2023-04-02T16:54:08.841Z,6.12
2023-04-02T16:57:19.984Z,6.12
2023-04-02T17:00:02.951Z,6.06
2023-04-02T17:03:08.116Z,6.03
2023-04-02T17:06:06.696Z,6.00
2023-04-02T17:08:48.245Z,5.99
2023-04-02T17:11:46.359Z,5.96
2023-04-02T17:14:43.943Z,5.93
2023-04-02T17:17:36.256Z,5.88
2023-04-02T17:20:29.245Z,5.84
2023-04-02T17:23:22.027Z,5.83
2023-04-02T17:26:17.249Z,5.78
2023-04-02T17:29:17.103Z,5.75
2023-04-02T17:31:53.426Z,5.71
2023-04-02T17:34:31.238Z,5.69
2023-04-02T17:37:23.035Z,5.74
2023-04-02T17:40:27.095Z,5.76
2023-04-02T17:43:32.401Z,5.77
2023-04-02T17:46:35.546Z,5.81
2023-04-02T17:49:32.927Z,5.86
2023-04-02T17:52:13.173Z,5.89
2023-04-02T17:55:15.457Z,5.89
2023-04-02T17:58:19.830Z,5.89
2023-04-02T18:01:07.685Z,5.88
2023-04-02T18:03:53.601Z,5.85
2023-04-02T18:06:33.520Z,5.83
2023-04-02T18:09:37.286Z,5.78
2023-04-02T18:12:45.732Z,5.77
2023-04-02T18:16:07.644Z,5.72
2023-04-02T18:19:16.092Z,5.66
2023-04-02T18:21:56.126Z,5.62
2023-04-02T18:24:46.289Z,5.60
2023-04-02T18:27:41.845Z,5.57
2023-04-02T18:30:27.988Z,5.55
2023-04-02T18:33:23.222Z,5.52
2023-04-02T18:36:21.872Z,5.46
2023-04-02T18:39:24.624Z,5.43
2023-04-02T18:42:06.590Z,5.46
2023-04-02T18:44:59.788Z,5.53
2023-04-02T18:48:03.433Z,5.53
2023-04-02T18:50:47.052Z,5.57
2023-04-02T18:53:40.763Z,5.61
2023-04-02T18:56:17.317Z,5.66
2023-04-02T18:59:02.337Z,5.67
2023-04-02T19:01:57.186Z,5.68
2023-04-02T19:04:40.128Z,5.70
2023-04-02T19:07:19.623Z,5.69
2023-04-02T19:10:25.054Z,5.70
2023-04-02T19:13:19.363Z,5.68
2023-04-02T19:16:42.944Z,5.63
2023-04-02T19:19:39.986Z,5.60
2023-04-02T19:22:34.979Z,5.57
2023-04-02T19:25:58.902Z,5.54
2023-04-02T19:29:13.102Z,5.49
2023-04-02T19:31:57.941Z,5.46
2023-04-02T19:34:44.805Z,5.44
2023-04-02T19:37:27.180Z,5.40
2023-04-02T19:40:29.888Z,5.36
2023-04-02T19:43:22.290Z,5.33
2023-04-02T19:46:05.787Z,5.32
2023-04-02T19:48:46.749Z,5.37
2023-04-02T19:51:21.364Z,5.39
2023-04-02T19:53:58.951Z,5.42
2023-04-02T19:56:51.428Z,5.45
2023-04-02T19:59:43.769Z,5.45
2023-04-02T20:02:18.005Z,5.43
2023-04-02T20:05:11.450Z,5.44
2023-04-02T20:08:03.682Z,5.45
2023-04-02T20:10:58.408Z,5.44
2023-04-02T20:13:50.761Z,5.38
2023-04-02T20:16:44.414Z,5.37
2023-04-02T20:19:37.366Z,5.35
2023-04-02T20:22:29.414Z,5.28
2023-04-02T20:25:21.328Z,5.20
2023-04-02T20:28:13.439Z,5.16
2023-04-02T20:30:49.943Z,5.14
2023-04-02T20:33:42.631Z,5.12
2023-04-02T20:36:34.813Z,5.10
2023-04-02T20:39:28.718Z,5.07
2023-04-02T20:42:20.931Z,5.07
2023-04-02T20:45:13.894Z,5.13
2023-04-02T20:48:06.986Z,5.15
2023-04-02T20:50:59.585Z,5.17
2023-04-02T20:53:52.196Z,5.19
2023-04-02T20:56:44.658Z,5.23
2023-04-02T20:59:36.632Z,5.21
2023-04-02T21:02:28.639Z,5.21
2023-04-02T21:05:20.742Z,5.20
2023-04-02T21:08:12.715Z,5.16
2023-04-02T21:11:06.553Z,5.11
2023-04-02T21:13:58.716Z,5.04
2023-04-02T21:16:50.597Z,5.00
2023-04-02T21:19:42.551Z,4.98
2023-04-02T21:22:34.557Z,4.95
2023-04-02T21:25:26.532Z,4.92
2023-04-02T21:28:18.496Z,4.89
2023-04-02T21:31:12.239Z,4.88
2023-04-02T21:34:05.243Z,4.84
2023-04-02T21:36:57.230Z,4.79
2023-04-02T21:39:49.243Z,4.80
2023-04-02T21:42:41.420Z,4.87
2023-04-02T21:45:22.643Z,4.85
2023-04-02T21:48:14.775Z,4.84
2023-04-02T21:50:46.632Z,4.85
2023-04-02T21:53:18.499Z,4.89
2023-04-02T21:56:13.257Z,4.93
2023-04-02T21:59:06.756Z,4.95
2023-04-02T22:01:58.933Z,4.91
2023-04-02T22:04:34.318Z,4.87
2023-04-02T22:07:08.568Z,4.80
2023-04-02T22:09:40.630Z,4.72
2023-04-02T22:12:32.836Z,4.66
2023-04-02T22:15:25.660Z,4.60
2023-04-02T22:18:17.758Z,4.54
2023-04-02T22:20:56.524Z,4.50
2023-04-02T22:23:49.361Z,4.47
2023-04-02T22:26:41.802Z,4.43
2023-04-02T22:29:19.094Z,4.37
2023-04-02T22:31:53.574Z,4.31
2023-04-02T22:34:45.796Z,4.36
2023-04-02T22:37:37.917Z,4.35
2023-04-02T22:40:30.782Z,4.33
2023-04-02T22:43:14.140Z,4.37
2023-04-02T22:45:59.243Z,4.42
2023-04-02T22:48:40.804Z,4.44
2023-04-02T22:51:32.913Z,4.44
2023-04-02T22:54:24.937Z,4.40
2023-04-02T22:57:17.107Z,4.38
2023-04-02T23:00:13.402Z,4.35
2023-04-02T23:03:06.133Z,4.33
2023-04-02T23:06:06.079Z,4.29
2023-04-02T23:08:58.127Z,4.28
2023-04-02T23:11:50.365Z,4.26
2023-04-02T23:14:42.371Z,4.20
2023-04-02T23:17:35.840Z,4.12
2023-04-02T23:20:27.909Z,4.05
2023-04-02T23:23:19.887Z,4.02
2023-04-02T23:26:15.442Z,4.09
2023-04-02T23:29:07.533Z,4.09
2023-04-02T23:31:59.515Z,4.13
2023-04-02T23:34:51.733Z,4.19
2023-04-02T23:37:43.751Z,4.22
2023-04-02T23:40:35.955Z,4.21
2023-04-02T23:43:28.281Z,4.19
2023-04-02T23:46:20.527Z,4.16
2023-04-02T23:49:13.568Z,4.17
2023-04-02T23:52:05.628Z,4.12
2023-04-02T23:54:39.954Z,4.09
2023-04-02T23:57:32.095Z,4.07
